Aérodrome :







RETROUVEZ-NOUS SUR...

 
LOGIN :

S'inscrire | Disclaimer

   EN    FR    IT 

 









Légende :    VFR   VFR Marginal   IFR   IFR Intensif   IFR Très Intensif
Visi : 
Plafond : 
>= 8 km
>= 3000ft
5 à 8 km
1000 à 3000 ft
1500m à 5 km
500 à 1000 ft
800 à 1500m
200 à 500 ft
< 800m
< 200 ft
Symboles :   Orages  Brouillard  Fortes neiges  Fortes précipitations  Vent > 20 kt






- Altitude de l'aérodrome : 160 ft
- Code IATA : YYG


CYYG - Charlottetown

DERNIER METAR :
  • 031700Z 24009G21KT 15SM BKN025 BKN055 05/00 A2995 RMK SC6SC1 SC TR CU ASOCTD SLP146

METARs EXPIRÉS :
  • 031600Z 23014KT 15SM SCT026 SCT055 05/M00 A2994 RMK CU4SC1 SC TR SLP142
  • 031500Z 23012G18KT 15SM FEW022 BKN051 06/01 A2993 RMK CU1SC5 SLP138

TAF TAF CYYG
Valide du 03 à 12h jusqu'au 04 à 00h UTC


031138Z 0312/0324 22012G22KT P6SM SCT020 BKN040
TEMPO 0312/0314 BKN020 OVC040
FM031900 23012G22KT P6SM SCT030
BECMG 0322/0324 23010KT RMK NXT FCST BY 031800Z
FIR CZQM / Amérique du Nord



MET'MAP, la Météo Aéronautique d'un coup d'oeil ! - Copyright ORBIFLY Décembre 2007 - Disclaimer

ORBIFLY MET'MAP TEAM :

Programmation & Développement : Alexandra Zaïnal
Sur une idée originale de : Baudouin d'Aumeries
Assistance à la programmation : Marc-Olivier Méhu
Soutien technique & logistique : Manuel Goepfert

Contact : metmap@orbifly.com




SOURCES & CREDITS :

   NOAA